Česky Dansk Deutsch English Español Suomi Français Magyar Italiano Nederlands norsk Polski Português svenska Türkçe

 

Het Weer

San Ignacio De Moxos (Bolivië)

13:00, 7 augustus 2016 (GMT)

NWNNE
WE
SWSSE
Home            
San Ignacio De Moxos Trinidad Santa Ana San Borja Reyes Rurrenabaque San Joaquin Magdalena Ascencion De Guarayos Cochabamba Apolo La Paz / Alto San Javier Oruro Viru-Viru Concepcion Santa Cruz / El Trompillo Riberalta Guayaramerin Sucre Puerto Maldonado Juliaca Potosi

Om een weerknop op uw website of weblog te plaatsen, copieer onderstaande code en plak die in uw pagina. In het eerste vakje staat HTML-code, in het tweede vakje UBB-code.


Add to Google

Details

Visibility: 5000 m, 5.0 km, 16404 ft, 3.1 miles
Clouds:Durchbrochene Bewölkung at 1700 ft, 518 m
Het Weer:moderate smoke
Temperature:21°C, 70°F
Dew-point:20°C, 68°F
Atmospheric pressure:1014 hPa, 760.6 mmHg, 29.94 inHg, 1.001 atm
Relative humidity:94.0 %
METAR:SLSM 071300Z 00000KT 5000 FU BKN017 21/20 Q1014

Snelkoppelingen

Actuele weersinformatie van de hele wereld. Voeg locaties toe met het plus (+) symbool. Deze snelkoppelingen kunnen worden toegevoegd aan Google.

Lid van de Technetium groep

website free tracking
StatCounter NetStat W3C Validator

24-11-2020 09:03:06
astro.technetium.be money.technetium.be phote.technetium.be tafeltennistafel.technetium.be www.ligfiets.net